Time;durP1;ratioP1;P1;durP2;ratioP2;P2;SDS_P1;SDS_P2;PMS_P1;PMS_P2;Temp;Humidity;BMP_temperature;BMP_pressure;BME280_temperature;BME280_humidity;BME280_pressure;Samples;Min_cycle;Max_cycle;Signal;HPM_P1;HPM_P2
2022/07/16 00:03:17;;;;;;;6.75;2.30;;;;;;;;;;10408631;28;20029;-57
2022/07/16 00:08:18;;;;;;;9.73;2.10;;;;;;;;;;10408853;28;20044;-58
2022/07/16 00:13:19;;;;;;;6.60;2.22;;;;;;;;;;10401888;28;20045;-57
2022/07/16 00:23:56;;;;;;;6.55;2.60;;;;;;;;;;10358406;28;20074;-57
2022/07/16 00:28:57;;;;;;;5.68;2.20;;;;;;;;;;10407871;28;20049;-57
2022/07/16 00:33:58;;;;;;;2.95;2.20;;;;;;;;;;10406690;28;20057;-57
2022/07/16 00:38:58;;;;;;;3.58;2.10;;;;;;;;;;10403847;28;20100;-57
2022/07/16 00:44:06;;;;;;;6.47;2.40;;;;;;;;;;10396622;28;20041;-56
2022/07/16 00:49:08;;;;;;;3.13;2.13;;;;;;;;;;10393745;28;20470;-55
2022/07/16 00:54:09;;;;;;;8.30;2.35;;;;;;;;;;10406140;28;20219;-55
2022/07/16 00:59:12;;;;;;;3.85;2.13;;;;;;;;;;10400149;28;20200;-56
2022/07/16 01:04:14;;;;;;;4.60;2.40;;;;;;;;;;10405775;28;20120;-56
2022/07/16 01:09:16;;;;;;;5.30;2.03;;;;;;;;;;10403622;28;20029;-56
2022/07/16 01:14:16;;;;;;;4.20;2.30;;;;;;;;;;10390469;28;20172;-57
2022/07/16 01:19:17;;;;;;;3.45;2.30;;;;;;;;;;10383856;28;20374;-49
2022/07/16 01:24:18;;;;;;;8.63;2.53;;;;;;;;;;10403819;28;20045;-56
2022/07/16 01:29:18;;;;;;;3.17;2.25;;;;;;;;;;10394315;28;20030;-53
2022/07/16 01:34:25;;;;;;;4.10;2.28;;;;;;;;;;10394360;28;20117;-55
2022/07/16 01:39:28;;;;;;;3.75;2.30;;;;;;;;;;10413540;28;20033;-56
2022/07/16 01:44:30;;;;;;;3.13;2.30;;;;;;;;;;10413973;28;20121;-55
2022/07/16 01:49:35;;;;;;;5.88;2.65;;;;;;;;;;10400606;28;20026;-55
2022/07/16 01:54:42;;;;;;;2.25;2.05;;;;;;;;;;10413365;28;20033;-56
2022/07/16 01:59:44;;;;;;;5.72;2.22;;;;;;;;;;10413157;28;20030;-49
2022/07/16 02:04:44;;;;;;;4.32;2.45;;;;;;;;;;10411818;28;20109;-56
2022/07/16 02:09:45;;;;;;;2.35;1.98;;;;;;;;;;10410444;28;20033;-55
2022/07/16 02:14:46;;;;;;;5.07;2.53;;;;;;;;;;10412264;28;20017;-54
2022/07/16 02:19:46;;;;;;;3.72;2.10;;;;;;;;;;10399620;28;20056;-57
2022/07/16 02:24:47;;;;;;;2.20;1.98;;;;;;;;;;10403164;28;20056;-55
2022/07/16 02:29:47;;;;;;;3.58;2.30;;;;;;;;;;10401133;28;20473;-57
2022/07/16 02:34:48;;;;;;;4.43;2.75;;;;;;;;;;10411746;28;20500;-56
2022/07/16 02:39:48;;;;;;;5.03;2.25;;;;;;;;;;10398275;28;20033;-54
2022/07/16 02:44:49;;;;;;;3.50;1.90;;;;;;;;;;10411526;28;20032;-56
2022/07/16 02:49:50;;;;;;;4.03;2.25;;;;;;;;;;10411004;28;20025;-58
2022/07/16 02:54:50;;;;;;;1.90;1.80;;;;;;;;;;10410459;28;20029;-56
2022/07/16 02:59:51;;;;;;;3.67;1.88;;;;;;;;;;10410962;28;20026;-58
2022/07/16 03:04:51;;;;;;;2.85;1.83;;;;;;;;;;10410438;28;20022;-56
2022/07/16 03:09:52;;;;;;;2.42;2.13;;;;;;;;;;10410079;28;20068;-57
2022/07/16 03:14:53;;;;;;;2.92;2.30;;;;;;;;;;10410099;28;20416;-58
2022/07/16 03:19:53;;;;;;;2.97;2.42;;;;;;;;;;10405971;28;20410;-49
2022/07/16 03:24:54;;;;;;;3.25;2.20;;;;;;;;;;10389850;28;20492;-52
2022/07/16 03:29:54;;;;;;;3.30;2.38;;;;;;;;;;10401801;28;20469;-50
2022/07/16 03:34:55;;;;;;;4.00;2.20;;;;;;;;;;10408909;28;20048;-51
2022/07/16 03:39:56;;;;;;;4.25;2.60;;;;;;;;;;10397433;28;20036;-52
2022/07/16 03:44:56;;;;;;;5.38;2.20;;;;;;;;;;10386019;28;20029;-51
2022/07/16 03:49:57;;;;;;;2.58;2.30;;;;;;;;;;10408061;28;20052;-52
2022/07/16 03:54:57;;;;;;;5.13;2.55;;;;;;;;;;10398507;28;20034;-52
2022/07/16 03:59:58;;;;;;;2.65;2.05;;;;;;;;;;10396153;28;20389;-52
2022/07/16 04:04:59;;;;;;;6.07;2.47;;;;;;;;;;10407445;28;20033;-51
2022/07/16 04:09:59;;;;;;;3.70;2.47;;;;;;;;;;10408514;28;20025;-51
2022/07/16 04:15:00;;;;;;;4.30;2.30;;;;;;;;;;10408409;28;20025;-51
2022/07/16 04:20:01;;;;;;;4.45;2.47;;;;;;;;;;10394144;28;20037;-49
2022/07/16 04:25:02;;;;;;;3.10;2.35;;;;;;;;;;10403722;28;20049;-51
2022/07/16 04:30:02;;;;;;;3.30;2.33;;;;;;;;;;10397221;28;20029;-51
2022/07/16 04:35:04;;;;;;;2.28;2.03;;;;;;;;;;10407403;28;20199;-51
2022/07/16 04:40:07;;;;;;;3.85;2.50;;;;;;;;;;10394525;28;20395;-51
2022/07/16 04:45:10;;;;;;;3.40;2.30;;;;;;;;;;10407208;28;20384;-51
2022/07/16 04:50:10;;;;;;;5.60;2.38;;;;;;;;;;10406935;28;20275;-52
2022/07/16 04:55:11;;;;;;;2.78;2.13;;;;;;;;;;10406645;28;20268;-51
2022/07/16 05:00:12;;;;;;;2.75;2.40;;;;;;;;;;10406227;28;20385;-52
2022/07/16 05:05:13;;;;;;;3.78;2.72;;;;;;;;;;10405695;28;20029;-48
2022/07/16 05:10:14;;;;;;;3.17;2.20;;;;;;;;;;10393892;28;20401;-49
2022/07/16 05:15:15;;;;;;;3.90;2.28;;;;;;;;;;10405473;28;20478;-50
2022/07/16 05:20:16;;;;;;;3.15;2.47;;;;;;;;;;10400134;28;20413;-51
2022/07/16 05:25:17;;;;;;;4.72;2.47;;;;;;;;;;10422295;23;20046;-49
2022/07/16 05:30:18;;;;;;;2.70;2.30;;;;;;;;;;10434954;28;20097;-49
2022/07/16 05:35:19;;;;;;;7.97;2.55;;;;;;;;;;10414276;28;20038;-49
2022/07/16 05:40:19;;;;;;;2.95;2.58;;;;;;;;;;10401313;28;20029;-49
2022/07/16 05:45:20;;;;;;;3.42;2.30;;;;;;;;;;10397498;28;20025;-48
2022/07/16 05:50:20;;;;;;;3.78;2.70;;;;;;;;;;10405542;28;20029;-50
2022/07/16 05:55:21;;;;;;;4.22;2.17;;;;;;;;;;10388082;28;20090;-50
2022/07/16 06:00:22;;;;;;;7.10;3.80;;;;;;;;;;10395608;28;20042;-50
2022/07/16 06:05:23;;;;;;;6.78;3.53;;;;;;;;;;10388076;28;20084;-58
2022/07/16 06:10:24;;;;;;;6.75;3.25;;;;;;;;;;10393900;28;20492;-47
2022/07/16 06:15:25;;;;;;;7.75;3.47;;;;;;;;;;10383280;28;20061;-48
2022/07/16 06:20:25;;;;;;;12.85;3.17;;;;;;;;;;10407573;28;20035;-46
2022/07/16 06:25:29;;;;;;;13.82;3.47;;;;;;;;;;10400490;28;20133;-52
2022/07/16 06:30:29;;;;;;;6.90;3.15;;;;;;;;;;10402162;28;20053;-45
2022/07/16 06:35:30;;;;;;;11.00;3.17;;;;;;;;;;10401584;28;20119;-45
2022/07/16 06:40:31;;;;;;;4.57;2.80;;;;;;;;;;10411184;28;20508;-45
2022/07/16 06:45:31;;;;;;;5.70;3.00;;;;;;;;;;10410726;28;20474;-45
2022/07/16 06:50:32;;;;;;;11.82;3.45;;;;;;;;;;10411663;28;20013;-45
2022/07/16 06:55:33;;;;;;;10.75;3.85;;;;;;;;;;10410992;28;20493;-53
2022/07/16 07:00:33;;;;;;;15.63;4.18;;;;;;;;;;10408287;28;20017;-46
2022/07/16 07:05:34;;;;;;;22.17;4.53;;;;;;;;;;10388120;28;20025;-49
2022/07/16 07:10:34;;;;;;;19.75;3.53;;;;;;;;;;10397831;28;20026;-45
2022/07/16 07:15:35;;;;;;;17.15;3.17;;;;;;;;;;10411398;28;20145;-45
2022/07/16 07:20:35;;;;;;;5.13;2.80;;;;;;;;;;10386682;28;20022;-49
2022/07/16 07:25:36;;;;;;;5.85;2.75;;;;;;;;;;10409345;28;20037;-48
2022/07/16 07:30:37;;;;;;;5.60;2.67;;;;;;;;;;10399704;28;20117;-48
2022/07/16 07:35:37;;;;;;;8.50;2.90;;;;;;;;;;10406114;28;20033;-54
2022/07/16 07:40:38;;;;;;;8.60;3.28;;;;;;;;;;10397528;28;20036;-58
2022/07/16 07:45:40;;;;;;;8.27;3.20;;;;;;;;;;10396802;28;20590;-46
2022/07/16 07:50:41;;;;;;;8.75;2.97;;;;;;;;;;10409180;28;20026;-51
2022/07/16 07:55:41;;;;;;;5.85;2.80;;;;;;;;;;10396217;28;20048;-46
2022/07/16 08:00:43;;;;;;;7.25;3.22;;;;;;;;;;10406856;28;20018;-53
2022/07/16 08:05:45;;;;;;;8.00;3.20;;;;;;;;;;10399350;28;20028;-51
2022/07/16 08:10:46;;;;;;;6.00;3.30;;;;;;;;;;10399163;28;20109;-45
2022/07/16 08:15:46;;;;;;;6.70;2.90;;;;;;;;;;10395594;28;20358;-45
2022/07/16 08:20:47;;;;;;;9.68;3.00;;;;;;;;;;10388264;28;20030;-46
2022/07/16 08:25:47;;;;;;;8.77;3.10;;;;;;;;;;10407345;28;20496;-51
2022/07/16 08:30:48;;;;;;;3.42;2.53;;;;;;;;;;10397692;28;20033;-46
2022/07/16 08:35:48;;;;;;;4.45;2.55;;;;;;;;;;10396991;28;20021;-54
2022/07/16 08:40:50;;;;;;;5.78;2.30;;;;;;;;;;10405414;28;20021;-45
2022/07/16 08:45:51;;;;;;;3.20;2.45;;;;;;;;;;10403409;28;20477;-46
2022/07/16 08:50:55;;;;;;;6.82;2.30;;;;;;;;;;10395051;28;20032;-46
2022/07/16 08:55:58;;;;;;;6.95;2.70;;;;;;;;;;10403185;28;20045;-45
2022/07/16 09:00:59;;;;;;;5.35;2.67;;;;;;;;;;10403236;28;20022;-51
2022/07/16 09:06:01;;;;;;;3.58;2.38;;;;;;;;;;10393677;28;20022;-47
2022/07/16 09:11:27;;;;;;;8.07;2.45;;;;;;;;;;10397365;28;20132;-54
2022/07/16 09:16:31;;;;;;;5.43;2.70;;;;;;;;;;10391136;28;20116;-46
2022/07/16 09:21:33;;;;;;;4.28;2.55;;;;;;;;;;10401721;28;20033;-46
2022/07/16 09:26:33;;;;;;;3.55;2.38;;;;;;;;;;10401415;28;20516;-45
2022/07/16 09:31:41;;;;;;;3.10;2.30;;;;;;;;;;10386045;28;20038;-53
2022/07/16 09:36:59;;;;;;;7.82;3.08;;;;;;;;;;10395155;28;20036;-49
2022/07/16 09:42:00;;;;;;;6.07;3.00;;;;;;;;;;10397937;28;20030;-48
2022/07/16 09:47:07;;;;;;;6.93;2.58;;;;;;;;;;10403460;28;20621;-51
2022/07/16 09:52:28;;;;;;;5.68;2.55;;;;;;;;;;10404836;28;20040;-48
2022/07/16 09:57:29;;;;;;;8.63;2.70;;;;;;;;;;10401098;28;20042;-48
2022/07/16 10:02:30;;;;;;;7.05;2.72;;;;;;;;;;10401308;28;20049;-45
2022/07/16 10:07:33;;;;;;;3.03;2.42;;;;;;;;;;10393443;28;20065;-45
2022/07/16 10:12:35;;;;;;;3.15;2.60;;;;;;;;;;10399666;28;20033;-45
2022/07/16 10:17:38;;;;;;;5.95;2.65;;;;;;;;;;10376612;28;20060;-45
2022/07/16 10:22:43;;;;;;;5.68;2.58;;;;;;;;;;10398586;28;20068;-45
2022/07/16 10:27:44;;;;;;;3.30;2.20;;;;;;;;;;10398178;28;20056;-49
2022/07/16 10:33:00;;;;;;;3.40;2.45;;;;;;;;;;10395737;28;20049;-45
2022/07/16 10:38:18;;;;;;;3.85;2.50;;;;;;;;;;10411942;28;20054;-45
2022/07/16 10:43:22;;;;;;;4.00;2.50;;;;;;;;;;10412075;28;20057;-45
2022/07/16 10:48:30;;;;;;;2.80;2.00;;;;;;;;;;10389752;28;20033;-46
2022/07/16 10:54:03;;;;;;;6.45;2.70;;;;;;;;;;10411033;28;20450;-45
2022/07/16 10:59:09;;;;;;;4.18;2.20;;;;;;;;;;10408809;28;20049;-56
2022/07/16 11:04:11;;;;;;;2.60;2.30;;;;;;;;;;10404046;28;20037;-47
2022/07/16 11:09:12;;;;;;;3.47;2.08;;;;;;;;;;10408122;28;20470;-45
2022/07/16 11:14:12;;;;;;;3.83;2.33;;;;;;;;;;10399440;28;20052;-58
2022/07/16 11:19:13;;;;;;;4.97;2.40;;;;;;;;;;10406954;28;20079;-58
2022/07/16 11:24:13;;;;;;;7.50;2.33;;;;;;;;;;10407012;28;20629;-52
2022/07/16 11:29:14;;;;;;;3.35;2.50;;;;;;;;;;10378157;28;20485;-45
2022/07/16 11:34:18;;;;;;;4.65;2.20;;;;;;;;;;10399045;28;20524;-45
2022/07/16 11:39:25;;;;;;;7.18;2.50;;;;;;;;;;10404514;28;20473;-46
2022/07/16 11:44:31;;;;;;;3.80;2.10;;;;;;;;;;10406672;28;20025;-46
2022/07/16 11:49:39;;;;;;;2.35;2.10;;;;;;;;;;10406038;28;20029;-45
2022/07/16 11:54:42;;;;;;;9.52;2.38;;;;;;;;;;10394796;28;20053;-45
2022/07/16 11:59:52;;;;;;;4.53;2.40;;;;;;;;;;10394107;28;20477;-45
2022/07/16 12:04:59;;;;;;;4.63;2.40;;;;;;;;;;10395247;28;20044;-45
2022/07/16 12:10:03;;;;;;;4.45;2.20;;;;;;;;;;10395829;28;20548;-45
2022/07/16 12:15:12;;;;;;;5.28;2.45;;;;;;;;;;10392599;28;20137;-46
2022/07/16 12:20:22;;;;;;;6.35;2.10;;;;;;;;;;10397079;28;20048;-45
2022/07/16 12:25:28;;;;;;;2.72;2.28;;;;;;;;;;10406598;28;20038;-45
2022/07/16 12:30:48;;;;;;;4.35;2.40;;;;;;;;;;10387513;28;20433;-45
2022/07/16 12:36:02;;;;;;;3.85;2.45;;;;;;;;;;10392353;28;20088;-48
2022/07/16 12:41:09;;;;;;;5.43;2.65;;;;;;;;;;10389741;28;20029;-46
2022/07/16 12:46:10;;;;;;;11.75;3.03;;;;;;;;;;10399378;28;20048;-47
2022/07/16 12:51:14;;;;;;;5.68;3.30;;;;;;;;;;10379008;28;20493;-45
2022/07/16 13:01:37;;;;;;;6.47;2.80;;;;;;;;;;10387477;28;20437;-45
2022/07/16 13:06:38;;;;;;;8.63;3.22;;;;;;;;;;10399866;28;20508;-45
2022/07/16 13:11:40;;;;;;;8.10;2.95;;;;;;;;;;10397624;28;20083;-50
2022/07/16 13:16:41;;;;;;;5.20;2.70;;;;;;;;;;10395833;28;20034;-45
2022/07/16 13:21:42;;;;;;;4.93;2.70;;;;;;;;;;10394313;28;20034;-46
2022/07/16 13:26:42;;;;;;;7.25;3.10;;;;;;;;;;10409857;28;20054;-45
2022/07/16 13:31:43;;;;;;;4.63;3.20;;;;;;;;;;10392798;28;20032;-45
2022/07/16 13:36:44;;;;;;;5.15;3.05;;;;;;;;;;10411245;28;20423;-46
2022/07/16 13:41:46;;;;;;;5.15;2.85;;;;;;;;;;10413802;28;20389;-45
2022/07/16 13:46:47;;;;;;;3.83;3.13;;;;;;;;;;10402309;28;20083;-45
2022/07/16 13:51:48;;;;;;;4.30;3.35;;;;;;;;;;10413505;28;20025;-46
2022/07/16 13:56:49;;;;;;;6.00;3.30;;;;;;;;;;10412505;28;20052;-45
2022/07/16 14:01:50;;;;;;;3.55;2.90;;;;;;;;;;10396180;28;20044;-45
2022/07/16 14:06:51;;;;;;;3.00;2.67;;;;;;;;;;10397337;28;20017;-45
2022/07/16 14:11:51;;;;;;;4.70;2.80;;;;;;;;;;10393020;28;20018;-45
2022/07/16 14:16:52;;;;;;;3.85;2.42;;;;;;;;;;10396778;28;20048;-45
2022/07/16 14:21:52;;;;;;;4.85;3.20;;;;;;;;;;10404367;28;20018;-46
2022/07/16 14:26:53;;;;;;;4.75;2.97;;;;;;;;;;10397193;28;20046;-46
2022/07/16 14:31:54;;;;;;;6.00;2.90;;;;;;;;;;10390587;28;20090;-58
2022/07/16 14:36:54;;;;;;;5.28;2.47;;;;;;;;;;10395967;28;20208;-57
2022/07/16 14:41:55;;;;;;;3.72;2.95;;;;;;;;;;10406760;28;20017;-58
2022/07/16 14:46:55;;;;;;;2.85;2.50;;;;;;;;;;10403069;28;20120;-45
2022/07/16 14:51:56;;;;;;;4.43;2.95;;;;;;;;;;10395920;28;20026;-45
2022/07/16 14:56:57;;;;;;;3.92;2.60;;;;;;;;;;10406523;28;20034;-45
2022/07/16 15:01:57;;;;;;;3.90;2.80;;;;;;;;;;10396171;28;20042;-45
2022/07/16 15:06:58;;;;;;;4.95;2.45;;;;;;;;;;10406201;28;20373;-45
2022/07/16 15:11:59;;;;;;;3.38;2.80;;;;;;;;;;10405693;28;20381;-45
2022/07/16 15:16:59;;;;;;;6.43;2.83;;;;;;;;;;10405616;28;20033;-45
2022/07/16 15:22:00;;;;;;;6.43;2.83;;;;;;;;;;10394216;28;20030;-45
2022/07/16 15:27:00;;;;;;;5.18;2.70;;;;;;;;;;10407271;28;20052;-45
2022/07/16 15:32:01;;;;;;;3.95;2.40;;;;;;;;;;10409456;28;20036;-45
2022/07/16 15:37:02;;;;;;;3.72;2.78;;;;;;;;;;10408700;28;20500;-47
2022/07/16 15:42:02;;;;;;;3.13;2.75;;;;;;;;;;10400732;28;20029;-45
2022/07/16 15:47:03;;;;;;;4.32;2.90;;;;;;;;;;10385942;28;20026;-46
2022/07/16 15:52:05;;;;;;;3.55;2.65;;;;;;;;;;10387727;28;20086;-51
2022/07/16 15:57:06;;;;;;;4.03;2.75;;;;;;;;;;10399246;28;20064;-45
2022/07/16 16:02:07;;;;;;;3.45;2.85;;;;;;;;;;10393326;28;20037;-46
2022/07/16 16:07:08;;;;;;;3.17;2.50;;;;;;;;;;10402056;28;20492;-47
2022/07/16 16:12:19;;;;;;;2.53;2.33;;;;;;;;;;10489347;28;21253;-49
2022/07/16 16:17:19;;;;;;;6.28;2.80;;;;;;;;;;10486501;28;20040;-49
2022/07/16 16:22:21;;;;;;;4.40;2.85;;;;;;;;;;10482798;28;20374;-54
2022/07/16 16:27:22;;;;;;;3.78;3.00;;;;;;;;;;10482182;28;20151;-51
2022/07/16 16:32:23;;;;;;;2.95;2.65;;;;;;;;;;10481197;28;20052;-47
2022/07/16 16:37:24;;;;;;;3.70;2.92;;;;;;;;;;10481655;28;20039;-51
2022/07/16 16:42:25;;;;;;;2.70;2.40;;;;;;;;;;10481849;28;20373;-55
2022/07/16 16:47:25;;;;;;;6.07;3.10;;;;;;;;;;10458024;28;20075;-50
2022/07/16 16:52:26;;;;;;;2.67;2.45;;;;;;;;;;10481877;28;20036;-50
2022/07/16 16:57:26;;;;;;;5.75;2.80;;;;;;;;;;10481104;28;20078;-58
2022/07/16 17:02:27;;;;;;;3.03;2.70;;;;;;;;;;10480842;28;20476;-60
2022/07/16 17:07:27;;;;;;;3.80;2.83;;;;;;;;;;10480393;28;20032;-47
2022/07/16 17:12:28;;;;;;;4.95;2.70;;;;;;;;;;10480335;28;20025;-48
2022/07/16 17:17:29;;;;;;;3.10;2.80;;;;;;;;;;10480575;28;20091;-60
2022/07/16 17:22:29;;;;;;;3.25;2.75;;;;;;;;;;10459365;28;20036;-54
2022/07/16 17:27:30;;;;;;;3.80;2.80;;;;;;;;;;10452999;28;20389;-48
2022/07/16 17:32:31;;;;;;;2.70;2.50;;;;;;;;;;10450508;28;20122;-47
2022/07/16 17:37:32;;;;;;;5.63;2.60;;;;;;;;;;10452404;28;20036;-47
2022/07/16 17:42:34;;;;;;;4.35;2.63;;;;;;;;;;10452701;28;20047;-47
2022/07/16 17:47:35;;;;;;;3.72;2.95;;;;;;;;;;10457019;28;20123;-47
2022/07/16 17:52:36;;;;;;;3.95;2.53;;;;;;;;;;10451867;28;20031;-47
2022/07/16 17:57:37;;;;;;;3.95;2.83;;;;;;;;;;10450077;28;20029;-47
2022/07/16 18:02:39;;;;;;;3.22;2.20;;;;;;;;;;10450539;28;20033;-47
2022/07/16 18:07:41;;;;;;;2.65;2.30;;;;;;;;;;10440832;28;20033;-58
2022/07/16 18:12:44;;;;;;;2.60;2.35;;;;;;;;;;10449045;28;20025;-61
2022/07/16 18:17:44;;;;;;;6.35;2.45;;;;;;;;;;10449323;28;20028;-59
2022/07/16 18:22:45;;;;;;;6.55;2.40;;;;;;;;;;10449216;28;20040;-61
2022/07/16 18:27:46;;;;;;;3.78;2.53;;;;;;;;;;10443204;28;20112;-51
2022/07/16 18:32:46;;;;;;;8.48;2.90;;;;;;;;;;10442945;28;20040;-53
2022/07/16 18:37:47;;;;;;;6.13;2.38;;;;;;;;;;10449596;28;20044;-61
2022/07/16 18:42:47;;;;;;;9.50;2.75;;;;;;;;;;10448418;28;20059;-56
2022/07/16 18:47:48;;;;;;;8.73;2.70;;;;;;;;;;10447417;28;20083;-47
2022/07/16 18:52:49;;;;;;;12.35;3.85;;;;;;;;;;10450590;28;20036;-47
2022/07/16 18:57:49;;;;;;;8.38;3.10;;;;;;;;;;10448947;28;20036;-47
2022/07/16 19:02:50;;;;;;;7.80;2.90;;;;;;;;;;10450476;28;20025;-48
2022/07/16 19:07:53;;;;;;;8.50;3.58;;;;;;;;;;10446649;28;20044;-48
2022/07/16 19:12:54;;;;;;;5.63;3.33;;;;;;;;;;10449921;28;20025;-49
2022/07/16 19:17:55;;;;;;;10.75;3.40;;;;;;;;;;10443783;28;20040;-60
2022/07/16 19:22:56;;;;;;;9.63;3.67;;;;;;;;;;10456777;28;20033;-47
2022/07/16 19:27:56;;;;;;;6.10;3.10;;;;;;;;;;10442834;28;20068;-47
2022/07/16 19:32:57;;;;;;;7.60;3.50;;;;;;;;;;10448320;28;20477;-47
2022/07/16 19:37:57;;;;;;;6.50;3.28;;;;;;;;;;10448411;28;20025;-47
2022/07/16 19:42:58;;;;;;;5.07;2.70;;;;;;;;;;10446100;28;20025;-48
2022/07/16 19:47:58;;;;;;;7.75;3.00;;;;;;;;;;10446241;28;20033;-50
2022/07/16 19:52:59;;;;;;;7.32;3.08;;;;;;;;;;10444963;28;20481;-47
2022/07/16 19:58:03;;;;;;;9.27;3.67;;;;;;;;;;10446401;28;20032;-48
2022/07/16 20:03:04;;;;;;;7.47;3.00;;;;;;;;;;10445019;28;20079;-49
2022/07/16 20:08:05;;;;;;;5.63;3.38;;;;;;;;;;10443580;28;20069;-49
2022/07/16 20:13:06;;;;;;;7.97;3.20;;;;;;;;;;10444847;28;20025;-47
2022/07/16 20:18:07;;;;;;;9.02;3.25;;;;;;;;;;10445256;28;20033;-54
2022/07/16 20:23:07;;;;;;;6.75;3.20;;;;;;;;;;10435258;28;20708;-58
2022/07/16 20:28:08;;;;;;;11.23;3.42;;;;;;;;;;10441771;28;20033;-61
2022/07/16 20:33:09;;;;;;;5.25;3.40;;;;;;;;;;10445395;28;20037;-61
2022/07/16 20:38:10;;;;;;;6.00;2.80;;;;;;;;;;10444201;28;20021;-61
2022/07/16 20:43:11;;;;;;;10.70;3.50;;;;;;;;;;10443290;28;20029;-61
2022/07/16 20:48:12;;;;;;;14.13;3.50;;;;;;;;;;10444641;28;20032;-61
2022/07/16 20:53:12;;;;;;;9.48;3.80;;;;;;;;;;10444592;28;20476;-61
2022/07/16 20:58:13;;;;;;;7.32;3.67;;;;;;;;;;10451103;28;20036;-56
2022/07/16 21:03:15;;;;;;;6.43;3.90;;;;;;;;;;10451598;28;20083;-61
2022/07/16 21:08:23;;;;;;;8.07;3.80;;;;;;;;;;10451779;28;20053;-52
2022/07/16 21:13:25;;;;;;;8.23;3.67;;;;;;;;;;10451863;28;20468;-60
2022/07/16 21:18:26;;;;;;;8.70;3.90;;;;;;;;;;10451952;28;20108;-54
2022/07/16 21:23:26;;;;;;;8.32;3.60;;;;;;;;;;10452329;28;20029;-53
2022/07/16 21:28:27;;;;;;;8.68;3.40;;;;;;;;;;10453458;28;20484;-60
2022/07/16 21:33:28;;;;;;;6.97;3.60;;;;;;;;;;10452190;28;20119;-52
2022/07/16 21:38:28;;;;;;;8.50;3.70;;;;;;;;;;10450903;28;20025;-56
2022/07/16 21:43:29;;;;;;;6.47;3.90;;;;;;;;;;10449329;28;20473;-45
2022/07/16 21:48:29;;;;;;;7.68;3.63;;;;;;;;;;10450255;28;20626;-46
2022/07/16 21:53:30;;;;;;;12.75;3.88;;;;;;;;;;10449473;28;20417;-51
2022/07/16 21:58:30;;;;;;;11.82;3.97;;;;;;;;;;10451317;28;20048;-48
2022/07/16 22:03:31;;;;;;;9.07;4.00;;;;;;;;;;10451119;28;20037;-49
2022/07/16 22:08:32;;;;;;;7.70;4.15;;;;;;;;;;10446004;28;20081;-49
2022/07/16 22:13:32;;;;;;;8.25;3.78;;;;;;;;;;10451220;28;20091;-49
2022/07/16 22:20:51;;;;;;;11.57;3.90;;;;;;;;;;10448716;28;20128;-50
2022/07/16 22:23:54;;;;;;;12.63;4.20;;;;;;;;;;10445304;28;20475;-49
2022/07/16 22:28:54;;;;;;;8.30;3.90;;;;;;;;;;10450242;28;20033;-50
2022/07/16 22:33:56;;;;;;;10.10;4.28;;;;;;;;;;10451390;28;20029;-51
2022/07/16 22:38:56;;;;;;;9.77;3.90;;;;;;;;;;10449204;28;20064;-55
2022/07/16 22:43:57;;;;;;;8.75;4.10;;;;;;;;;;10450069;28;20052;-58
2022/07/16 22:48:57;;;;;;;4.65;3.30;;;;;;;;;;10448272;28;20427;-49
2022/07/16 22:53:58;;;;;;;6.38;3.90;;;;;;;;;;10448380;28;20020;-49
2022/07/16 22:58:59;;;;;;;4.95;3.55;;;;;;;;;;10450210;28;20100;-49
2022/07/16 23:04:00;;;;;;;5.00;3.53;;;;;;;;;;10449711;28;20453;-53
2022/07/16 23:09:01;;;;;;;7.00;3.75;;;;;;;;;;10449079;28;20051;-48
2022/07/16 23:14:02;;;;;;;4.20;3.55;;;;;;;;;;10449032;28;20032;-48
2022/07/16 23:19:03;;;;;;;7.05;3.50;;;;;;;;;;10448160;28;20098;-48
2022/07/16 23:24:04;;;;;;;4.70;3.33;;;;;;;;;;10448760;28;20028;-49
2022/07/16 23:29:05;;;;;;;8.10;3.53;;;;;;;;;;10448915;28;20476;-48
2022/07/16 23:34:05;;;;;;;4.72;3.47;;;;;;;;;;10448036;28;20028;-48
2022/07/16 23:39:06;;;;;;;8.48;3.72;;;;;;;;;;10448205;28;20033;-48
2022/07/16 23:44:06;;;;;;;5.55;3.75;;;;;;;;;;10448350;28;20090;-48
2022/07/16 23:49:07;;;;;;;6.35;3.35;;;;;;;;;;10448512;28;20518;-57
2022/07/16 23:54:07;;;;;;;4.10;2.92;;;;;;;;;;10447055;28;20032;-48
2022/07/16 23:59:08;;;;;;;6.70;3.72;;;;;;;;;;10448435;28;20372;-48
